sensor_id;sensor_type;location;lat;lon;timestamp;P1;durP1;ratioP1;P2;durP2;ratioP2
19026;SDS011;9646;52.034;5.554;2022-08-05T00:00:07;3.55;;;1.80;;
19026;SDS011;9646;52.034;5.554;2022-08-05T00:02:34;3.53;;;1.15;;
19026;SDS011;9646;52.034;5.554;2022-08-05T00:05:03;4.18;;;1.70;;
19026;SDS011;9646;52.034;5.554;2022-08-05T00:07:30;3.17;;;1.48;;
19026;SDS011;9646;52.034;5.554;2022-08-05T00:09:57;3.75;;;1.63;;
19026;SDS011;9646;52.034;5.554;2022-08-05T00:12:24;4.85;;;1.58;;
19026;SDS011;9646;52.034;5.554;2022-08-05T00:14:51;7.10;;;1.90;;
19026;SDS011;9646;52.034;5.554;2022-08-05T00:17:18;3.67;;;1.30;;
19026;SDS011;9646;52.034;5.554;2022-08-05T00:19:45;4.05;;;1.70;;
19026;SDS011;9646;52.034;5.554;2022-08-05T00:22:14;4.43;;;1.60;;
19026;SDS011;9646;52.034;5.554;2022-08-05T00:24:41;5.55;;;1.80;;
19026;SDS011;9646;52.034;5.554;2022-08-05T00:27:08;6.93;;;1.50;;
19026;SDS011;9646;52.034;5.554;2022-08-05T00:29:35;5.57;;;1.85;;
19026;SDS011;9646;52.034;5.554;2022-08-05T00:32:02;3.25;;;1.70;;
19026;SDS011;9646;52.034;5.554;2022-08-05T00:34:30;4.85;;;1.98;;
19026;SDS011;9646;52.034;5.554;2022-08-05T00:36:57;5.47;;;2.03;;
19026;SDS011;9646;52.034;5.554;2022-08-05T00:39:25;4.95;;;1.63;;
19026;SDS011;9646;52.034;5.554;2022-08-05T00:41:52;3.05;;;1.70;;
19026;SDS011;9646;52.034;5.554;2022-08-05T00:44:19;5.30;;;1.35;;
19026;SDS011;9646;52.034;5.554;2022-08-05T00:46:46;5.13;;;1.58;;
19026;SDS011;9646;52.034;5.554;2022-08-05T00:49:14;5.50;;;1.70;;
19026;SDS011;9646;52.034;5.554;2022-08-05T00:51:43;6.18;;;1.73;;
19026;SDS011;9646;52.034;5.554;2022-08-05T00:54:10;2.95;;;1.38;;
19026;SDS011;9646;52.034;5.554;2022-08-05T00:56:38;4.93;;;1.60;;
19026;SDS011;9646;52.034;5.554;2022-08-05T00:59:06;5.60;;;1.73;;
19026;SDS011;9646;52.034;5.554;2022-08-05T01:01:33;4.10;;;1.50;;
19026;SDS011;9646;52.034;5.554;2022-08-05T01:04:00;6.72;;;1.80;;
19026;SDS011;9646;52.034;5.554;2022-08-05T01:06:27;5.05;;;1.60;;
19026;SDS011;9646;52.034;5.554;2022-08-05T01:08:54;2.65;;;0.98;;
19026;SDS011;9646;52.034;5.554;2022-08-05T01:11:23;5.90;;;1.90;;
19026;SDS011;9646;52.034;5.554;2022-08-05T01:13:59;5.72;;;1.30;;
19026;SDS011;9646;52.034;5.554;2022-08-05T01:16:29;4.68;;;1.70;;
19026;SDS011;9646;52.034;5.554;2022-08-05T01:18:59;2.45;;;1.20;;
19026;SDS011;9646;52.034;5.554;2022-08-05T01:21:45;4.38;;;1.70;;
19026;SDS011;9646;52.034;5.554;2022-08-05T01:24:22;5.60;;;1.67;;
19026;SDS011;9646;52.034;5.554;2022-08-05T01:26:55;6.07;;;2.00;;
19026;SDS011;9646;52.034;5.554;2022-08-05T01:29:28;2.20;;;1.20;;
19026;SDS011;9646;52.034;5.554;2022-08-05T01:31:58;4.80;;;1.70;;
19026;SDS011;9646;52.034;5.554;2022-08-05T01:34:27;4.88;;;1.73;;
19026;SDS011;9646;52.034;5.554;2022-08-05T01:36:57;3.20;;;1.30;;
19026;SDS011;9646;52.034;5.554;2022-08-05T01:39:28;2.47;;;1.77;;
19026;SDS011;9646;52.034;5.554;2022-08-05T01:41:57;5.85;;;1.92;;
19026;SDS011;9646;52.034;5.554;2022-08-05T01:44:25;4.05;;;1.55;;
19026;SDS011;9646;52.034;5.554;2022-08-05T01:46:53;5.97;;;1.58;;
19026;SDS011;9646;52.034;5.554;2022-08-05T01:49:21;4.70;;;1.90;;
19026;SDS011;9646;52.034;5.554;2022-08-05T01:51:50;5.15;;;1.55;;
19026;SDS011;9646;52.034;5.554;2022-08-05T01:54:17;5.75;;;2.03;;
19026;SDS011;9646;52.034;5.554;2022-08-05T01:56:45;4.78;;;2.13;;
19026;SDS011;9646;52.034;5.554;2022-08-05T01:59:16;6.07;;;2.00;;
19026;SDS011;9646;52.034;5.554;2022-08-05T02:01:43;4.65;;;1.42;;
19026;SDS011;9646;52.034;5.554;2022-08-05T02:04:13;3.35;;;1.45;;
19026;SDS011;9646;52.034;5.554;2022-08-05T02:06:42;4.60;;;1.98;;
19026;SDS011;9646;52.034;5.554;2022-08-05T02:09:09;5.68;;;1.70;;
19026;SDS011;9646;52.034;5.554;2022-08-05T02:11:40;3.45;;;1.60;;
19026;SDS011;9646;52.034;5.554;2022-08-05T02:14:09;4.78;;;1.50;;
19026;SDS011;9646;52.034;5.554;2022-08-05T02:16:38;5.75;;;1.50;;
19026;SDS011;9646;52.034;5.554;2022-08-05T02:19:10;4.05;;;1.42;;
19026;SDS011;9646;52.034;5.554;2022-08-05T02:21:41;5.18;;;1.50;;
19026;SDS011;9646;52.034;5.554;2022-08-05T02:24:10;2.88;;;1.50;;
19026;SDS011;9646;52.034;5.554;2022-08-05T02:26:42;6.35;;;1.70;;
19026;SDS011;9646;52.034;5.554;2022-08-05T02:29:10;5.38;;;1.80;;
19026;SDS011;9646;52.034;5.554;2022-08-05T02:31:38;4.70;;;1.45;;
19026;SDS011;9646;52.034;5.554;2022-08-05T02:34:06;3.13;;;1.45;;
19026;SDS011;9646;52.034;5.554;2022-08-05T02:36:36;4.63;;;1.17;;
19026;SDS011;9646;52.034;5.554;2022-08-05T02:39:06;4.15;;;1.70;;
19026;SDS011;9646;52.034;5.554;2022-08-05T02:41:34;5.22;;;1.90;;
19026;SDS011;9646;52.034;5.554;2022-08-05T02:44:02;3.97;;;1.60;;
19026;SDS011;9646;52.034;5.554;2022-08-05T02:46:32;3.72;;;1.45;;
19026;SDS011;9646;52.034;5.554;2022-08-05T02:48:59;5.30;;;1.83;;
19026;SDS011;9646;52.034;5.554;2022-08-05T02:51:26;4.75;;;1.58;;
19026;SDS011;9646;52.034;5.554;2022-08-05T02:53:54;7.63;;;1.58;;
19026;SDS011;9646;52.034;5.554;2022-08-05T02:56:22;2.72;;;1.80;;
19026;SDS011;9646;52.034;5.554;2022-08-05T02:58:51;3.38;;;1.60;;
19026;SDS011;9646;52.034;5.554;2022-08-05T03:01:19;3.08;;;1.60;;
19026;SDS011;9646;52.034;5.554;2022-08-05T03:03:49;3.85;;;1.42;;
19026;SDS011;9646;52.034;5.554;2022-08-05T03:06:18;6.10;;;1.88;;
19026;SDS011;9646;52.034;5.554;2022-08-05T03:08:47;4.80;;;1.63;;
19026;SDS011;9646;52.034;5.554;2022-08-05T03:11:15;4.18;;;1.40;;
19026;SDS011;9646;52.034;5.554;2022-08-05T03:13:44;3.13;;;1.40;;
19026;SDS011;9646;52.034;5.554;2022-08-05T03:16:11;6.00;;;1.60;;
19026;SDS011;9646;52.034;5.554;2022-08-05T03:18:38;4.78;;;1.55;;
19026;SDS011;9646;52.034;5.554;2022-08-05T03:21:05;6.00;;;1.55;;
19026;SDS011;9646;52.034;5.554;2022-08-05T03:23:32;4.28;;;1.30;;
19026;SDS011;9646;52.034;5.554;2022-08-05T03:26:00;3.40;;;1.30;;
19026;SDS011;9646;52.034;5.554;2022-08-05T03:28:27;3.40;;;1.38;;
19026;SDS011;9646;52.034;5.554;2022-08-05T03:30:56;4.13;;;1.70;;
19026;SDS011;9646;52.034;5.554;2022-08-05T03:33:24;5.72;;;1.40;;
19026;SDS011;9646;52.034;5.554;2022-08-05T03:35:51;2.90;;;1.40;;
19026;SDS011;9646;52.034;5.554;2022-08-05T03:38:20;4.05;;;1.40;;
19026;SDS011;9646;52.034;5.554;2022-08-05T03:40:47;2.95;;;1.40;;
19026;SDS011;9646;52.034;5.554;2022-08-05T03:43:15;5.18;;;1.73;;
19026;SDS011;9646;52.034;5.554;2022-08-05T03:45:43;3.92;;;1.23;;
19026;SDS011;9646;52.034;5.554;2022-08-05T03:48:11;2.65;;;1.20;;
19026;SDS011;9646;52.034;5.554;2022-08-05T03:50:41;4.20;;;1.80;;
19026;SDS011;9646;52.034;5.554;2022-08-05T03:53:10;3.25;;;1.33;;
19026;SDS011;9646;52.034;5.554;2022-08-05T03:55:38;3.83;;;1.40;;
19026;SDS011;9646;52.034;5.554;2022-08-05T03:58:08;2.92;;;1.70;;
19026;SDS011;9646;52.034;5.554;2022-08-05T04:00:37;5.15;;;1.60;;
19026;SDS011;9646;52.034;5.554;2022-08-05T04:03:05;4.60;;;1.70;;
19026;SDS011;9646;52.034;5.554;2022-08-05T04:05:34;4.30;;;1.60;;
19026;SDS011;9646;52.034;5.554;2022-08-05T04:08:03;5.63;;;1.70;;
19026;SDS011;9646;52.034;5.554;2022-08-05T04:10:31;3.90;;;1.55;;
19026;SDS011;9646;52.034;5.554;2022-08-05T04:12:59;3.22;;;1.42;;
19026;SDS011;9646;52.034;5.554;2022-08-05T04:15:26;3.25;;;1.67;;
19026;SDS011;9646;52.034;5.554;2022-08-05T04:17:53;5.07;;;1.88;;
19026;SDS011;9646;52.034;5.554;2022-08-05T04:20:21;6.43;;;1.80;;
19026;SDS011;9646;52.034;5.554;2022-08-05T04:22:50;5.75;;;1.80;;
19026;SDS011;9646;52.034;5.554;2022-08-05T04:25:17;4.68;;;1.70;;
19026;SDS011;9646;52.034;5.554;2022-08-05T04:27:44;3.75;;;1.80;;
19026;SDS011;9646;52.034;5.554;2022-08-05T04:30:11;5.95;;;1.75;;
19026;SDS011;9646;52.034;5.554;2022-08-05T04:32:39;6.80;;;1.77;;
19026;SDS011;9646;52.034;5.554;2022-08-05T04:35:06;6.70;;;1.95;;
19026;SDS011;9646;52.034;5.554;2022-08-05T04:37:33;5.03;;;1.70;;
19026;SDS011;9646;52.034;5.554;2022-08-05T04:40:02;5.30;;;1.77;;
19026;SDS011;9646;52.034;5.554;2022-08-05T04:42:29;4.50;;;1.88;;
19026;SDS011;9646;52.034;5.554;2022-08-05T04:44:56;4.78;;;2.03;;
19026;SDS011;9646;52.034;5.554;2022-08-05T04:47:23;5.05;;;1.60;;
19026;SDS011;9646;52.034;5.554;2022-08-05T04:49:50;4.68;;;2.03;;
19026;SDS011;9646;52.034;5.554;2022-08-05T04:52:17;6.25;;;2.15;;
19026;SDS011;9646;52.034;5.554;2022-08-05T04:54:44;6.78;;;2.22;;
19026;SDS011;9646;52.034;5.554;2022-08-05T04:57:13;2.97;;;1.70;;
19026;SDS011;9646;52.034;5.554;2022-08-05T04:59:40;4.70;;;1.65;;
19026;SDS011;9646;52.034;5.554;2022-08-05T05:02:07;5.38;;;1.90;;
19026;SDS011;9646;52.034;5.554;2022-08-05T05:04:34;2.85;;;1.48;;
19026;SDS011;9646;52.034;5.554;2022-08-05T05:07:02;4.63;;;1.33;;
19026;SDS011;9646;52.034;5.554;2022-08-05T05:09:29;4.63;;;1.60;;
19026;SDS011;9646;52.034;5.554;2022-08-05T05:11:56;6.28;;;1.98;;
19026;SDS011;9646;52.034;5.554;2022-08-05T05:14:25;3.60;;;1.42;;
19026;SDS011;9646;52.034;5.554;2022-08-05T05:16:52;8.32;;;1.98;;
19026;SDS011;9646;52.034;5.554;2022-08-05T05:19:19;3.90;;;1.55;;
19026;SDS011;9646;52.034;5.554;2022-08-05T05:21:46;3.55;;;1.60;;
19026;SDS011;9646;52.034;5.554;2022-08-05T05:24:13;5.22;;;2.00;;
19026;SDS011;9646;52.034;5.554;2022-08-05T05:26:40;4.53;;;1.70;;
19026;SDS011;9646;52.034;5.554;2022-08-05T05:29:07;8.00;;;2.00;;
19026;SDS011;9646;52.034;5.554;2022-08-05T05:31:36;6.20;;;1.88;;
19026;SDS011;9646;52.034;5.554;2022-08-05T05:34:03;5.88;;;1.70;;
19026;SDS011;9646;52.034;5.554;2022-08-05T05:36:30;5.90;;;1.80;;
19026;SDS011;9646;52.034;5.554;2022-08-05T05:38:57;4.00;;;1.70;;
19026;SDS011;9646;52.034;5.554;2022-08-05T05:41:24;3.55;;;1.70;;
19026;SDS011;9646;52.034;5.554;2022-08-05T05:43:51;2.28;;;1.20;;
19026;SDS011;9646;52.034;5.554;2022-08-05T05:46:18;3.40;;;1.50;;
19026;SDS011;9646;52.034;5.554;2022-08-05T05:48:47;6.13;;;1.85;;
19026;SDS011;9646;52.034;5.554;2022-08-05T05:51:18;6.20;;;2.15;;
19026;SDS011;9646;52.034;5.554;2022-08-05T05:53:45;4.72;;;2.08;;
19026;SDS011;9646;52.034;5.554;2022-08-05T05:56:12;4.80;;;1.45;;
19026;SDS011;9646;52.034;5.554;2022-08-05T05:58:39;6.22;;;1.50;;
19026;SDS011;9646;52.034;5.554;2022-08-05T06:01:06;7.28;;;1.90;;
19026;SDS011;9646;52.034;5.554;2022-08-05T06:03:34;4.18;;;1.50;;
19026;SDS011;9646;52.034;5.554;2022-08-05T06:06:03;4.10;;;1.50;;
19026;SDS011;9646;52.034;5.554;2022-08-05T06:08:31;7.25;;;2.20;;
19026;SDS011;9646;52.034;5.554;2022-08-05T06:10:58;4.30;;;1.85;;
19026;SDS011;9646;52.034;5.554;2022-08-05T06:13:25;4.05;;;1.90;;
19026;SDS011;9646;52.034;5.554;2022-08-05T06:15:52;7.38;;;2.30;;
19026;SDS011;9646;52.034;5.554;2022-08-05T06:18:19;7.22;;;1.95;;
19026;SDS011;9646;52.034;5.554;2022-08-05T06:20:46;4.18;;;1.52;;
19026;SDS011;9646;52.034;5.554;2022-08-05T06:23:14;5.18;;;1.30;;
19026;SDS011;9646;52.034;5.554;2022-08-05T06:25:41;3.80;;;1.00;;
19026;SDS011;9646;52.034;5.554;2022-08-05T06:28:09;4.90;;;1.75;;
19026;SDS011;9646;52.034;5.554;2022-08-05T06:30:36;1.95;;;1.25;;
19026;SDS011;9646;52.034;5.554;2022-08-05T06:33:03;2.33;;;1.10;;
19026;SDS011;9646;52.034;5.554;2022-08-05T06:35:30;3.47;;;1.05;;
19026;SDS011;9646;52.034;5.554;2022-08-05T06:37:57;5.05;;;1.50;;
19026;SDS011;9646;52.034;5.554;2022-08-05T06:40:25;3.53;;;1.25;;
19026;SDS011;9646;52.034;5.554;2022-08-05T06:42:52;4.93;;;1.75;;
19026;SDS011;9646;52.034;5.554;2022-08-05T06:45:20;3.70;;;1.40;;
19026;SDS011;9646;52.034;5.554;2022-08-05T06:47:47;3.15;;;1.08;;
19026;SDS011;9646;52.034;5.554;2022-08-05T06:50:14;2.28;;;1.10;;
19026;SDS011;9646;52.034;5.554;2022-08-05T06:52:41;3.05;;;1.35;;
19026;SDS011;9646;52.034;5.554;2022-08-05T06:55:08;3.05;;;1.20;;
19026;SDS011;9646;52.034;5.554;2022-08-05T06:57:37;4.82;;;1.30;;
19026;SDS011;9646;52.034;5.554;2022-08-05T07:00:04;5.97;;;1.90;;
19026;SDS011;9646;52.034;5.554;2022-08-05T07:02:32;3.95;;;1.70;;
19026;SDS011;9646;52.034;5.554;2022-08-05T07:04:59;3.20;;;1.38;;
19026;SDS011;9646;52.034;5.554;2022-08-05T07:07:26;2.67;;;1.00;;
19026;SDS011;9646;52.034;5.554;2022-08-05T07:09:53;6.90;;;1.90;;
19026;SDS011;9646;52.034;5.554;2022-08-05T07:12:20;3.33;;;1.38;;
19026;SDS011;9646;52.034;5.554;2022-08-05T07:15:06;4.60;;;1.30;;
19026;SDS011;9646;52.034;5.554;2022-08-05T07:17:51;3.53;;;1.20;;
19026;SDS011;9646;52.034;5.554;2022-08-05T07:20:18;2.65;;;1.17;;
19026;SDS011;9646;52.034;5.554;2022-08-05T07:22:45;2.25;;;1.02;;
19026;SDS011;9646;52.034;5.554;2022-08-05T07:25:12;3.63;;;1.27;;
19026;SDS011;9646;52.034;5.554;2022-08-05T07:27:39;8.70;;;1.55;;
19026;SDS011;9646;52.034;5.554;2022-08-05T07:30:08;4.35;;;1.38;;
19026;SDS011;9646;52.034;5.554;2022-08-05T07:32:36;3.92;;;1.08;;
19026;SDS011;9646;52.034;5.554;2022-08-05T07:35:06;1.55;;;1.00;;
19026;SDS011;9646;52.034;5.554;2022-08-05T07:37:33;1.77;;;0.95;;
19026;SDS011;9646;52.034;5.554;2022-08-05T07:40:00;2.63;;;0.98;;
19026;SDS011;9646;52.034;5.554;2022-08-05T07:42:27;3.45;;;1.20;;
19026;SDS011;9646;52.034;5.554;2022-08-05T07:44:54;2.83;;;1.15;;
19026;SDS011;9646;52.034;5.554;2022-08-05T07:47:23;3.08;;;1.02;;
19026;SDS011;9646;52.034;5.554;2022-08-05T07:49:50;2.97;;;1.17;;
19026;SDS011;9646;52.034;5.554;2022-08-05T07:52:17;4.07;;;0.98;;
19026;SDS011;9646;52.034;5.554;2022-08-05T07:54:44;3.53;;;0.90;;
19026;SDS011;9646;52.034;5.554;2022-08-05T07:57:11;3.22;;;1.00;;
19026;SDS011;9646;52.034;5.554;2022-08-05T07:59:38;2.80;;;0.90;;
19026;SDS011;9646;52.034;5.554;2022-08-05T08:02:06;1.55;;;0.80;;
19026;SDS011;9646;52.034;5.554;2022-08-05T08:04:34;7.78;;;1.10;;
19026;SDS011;9646;52.034;5.554;2022-08-05T08:07:01;2.63;;;0.77;;
19026;SDS011;9646;52.034;5.554;2022-08-05T08:09:28;3.75;;;1.05;;
19026;SDS011;9646;52.034;5.554;2022-08-05T08:11:55;1.88;;;0.70;;
19026;SDS011;9646;52.034;5.554;2022-08-05T08:14:22;1.38;;;0.85;;
19026;SDS011;9646;52.034;5.554;2022-08-05T08:16:49;2.00;;;0.95;;
19026;SDS011;9646;52.034;5.554;2022-08-05T08:19:16;1.85;;;0.73;;
19026;SDS011;9646;52.034;5.554;2022-08-05T08:21:45;1.80;;;0.70;;
19026;SDS011;9646;52.034;5.554;2022-08-05T08:24:12;2.15;;;0.70;;
19026;SDS011;9646;52.034;5.554;2022-08-05T08:26:39;1.73;;;0.60;;
19026;SDS011;9646;52.034;5.554;2022-08-05T08:29:06;1.50;;;0.57;;
19026;SDS011;9646;52.034;5.554;2022-08-05T08:31:33;1.73;;;0.80;;
19026;SDS011;9646;52.034;5.554;2022-08-05T08:34:00;1.60;;;0.60;;
19026;SDS011;9646;52.034;5.554;2022-08-05T08:36:27;1.70;;;0.70;;
19026;SDS011;9646;52.034;5.554;2022-08-05T08:38:56;1.58;;;0.70;;
19026;SDS011;9646;52.034;5.554;2022-08-05T08:41:24;2.92;;;0.50;;
19026;SDS011;9646;52.034;5.554;2022-08-05T08:43:51;1.42;;;0.65;;
19026;SDS011;9646;52.034;5.554;2022-08-05T08:46:20;3.47;;;0.80;;
19026;SDS011;9646;52.034;5.554;2022-08-05T08:48:49;2.90;;;0.90;;
19026;SDS011;9646;52.034;5.554;2022-08-05T08:51:16;2.42;;;1.13;;
19026;SDS011;9646;52.034;5.554;2022-08-05T08:53:44;4.05;;;1.08;;
19026;SDS011;9646;52.034;5.554;2022-08-05T08:56:12;1.25;;;0.50;;
19026;SDS011;9646;52.034;5.554;2022-08-05T08:58:39;2.72;;;0.80;;
19026;SDS011;9646;52.034;5.554;2022-08-05T09:01:07;2.58;;;1.00;;
19026;SDS011;9646;52.034;5.554;2022-08-05T09:03:34;3.15;;;0.73;;
19026;SDS011;9646;52.034;5.554;2022-08-05T09:06:02;2.47;;;0.50;;
19026;SDS011;9646;52.034;5.554;2022-08-05T09:08:29;2.90;;;0.73;;
19026;SDS011;9646;52.034;5.554;2022-08-05T09:10:56;1.35;;;0.63;;
19026;SDS011;9646;52.034;5.554;2022-08-05T09:13:25;2.72;;;0.60;;
19026;SDS011;9646;52.034;5.554;2022-08-05T09:15:52;0.57;;;0.50;;
19026;SDS011;9646;52.034;5.554;2022-08-05T09:18:19;2.55;;;0.60;;
19026;SDS011;9646;52.034;5.554;2022-08-05T09:20:46;1.27;;;0.60;;
19026;SDS011;9646;52.034;5.554;2022-08-05T09:23:15;2.03;;;0.60;;
19026;SDS011;9646;52.034;5.554;2022-08-05T09:25:44;2.15;;;0.50;;
19026;SDS011;9646;52.034;5.554;2022-08-05T09:28:13;1.08;;;0.52;;
19026;SDS011;9646;52.034;5.554;2022-08-05T09:30:42;1.95;;;0.63;;
19026;SDS011;9646;52.034;5.554;2022-08-05T09:33:09;1.17;;;0.50;;
19026;SDS011;9646;52.034;5.554;2022-08-05T09:35:37;0.82;;;0.52;;
19026;SDS011;9646;52.034;5.554;2022-08-05T09:38:05;2.40;;;0.60;;
19026;SDS011;9646;52.034;5.554;2022-08-05T09:40:33;0.60;;;0.40;;
19026;SDS011;9646;52.034;5.554;2022-08-05T09:43:02;1.80;;;0.75;;
19026;SDS011;9646;52.034;5.554;2022-08-05T09:45:38;0.88;;;0.47;;
19026;SDS011;9646;52.034;5.554;2022-08-05T09:48:19;2.58;;;0.75;;
19026;SDS011;9646;52.034;5.554;2022-08-05T09:50:50;1.65;;;0.50;;
19026;SDS011;9646;52.034;5.554;2022-08-05T09:53:17;3.00;;;0.45;;
19026;SDS011;9646;52.034;5.554;2022-08-05T09:55:44;1.60;;;0.75;;
19026;SDS011;9646;52.034;5.554;2022-08-05T09:58:12;2.88;;;0.50;;
19026;SDS011;9646;52.034;5.554;2022-08-05T10:00:41;3.05;;;0.63;;
19026;SDS011;9646;52.034;5.554;2022-08-05T10:03:18;1.45;;;0.50;;
19026;SDS011;9646;52.034;5.554;2022-08-05T10:05:46;0.90;;;0.63;;
19026;SDS011;9646;52.034;5.554;2022-08-05T10:08:28;0.60;;;0.30;;
19026;SDS011;9646;52.034;5.554;2022-08-05T10:10:55;1.80;;;0.50;;
19026;SDS011;9646;52.034;5.554;2022-08-05T10:13:26;1.17;;;0.50;;
19026;SDS011;9646;52.034;5.554;2022-08-05T10:15:53;2.40;;;0.70;;
19026;SDS011;9646;52.034;5.554;2022-08-05T10:18:23;2.33;;;0.50;;
19026;SDS011;9646;52.034;5.554;2022-08-05T10:20:52;0.90;;;0.32;;
19026;SDS011;9646;52.034;5.554;2022-08-05T10:23:20;1.63;;;0.68;;
19026;SDS011;9646;52.034;5.554;2022-08-05T10:25:48;1.63;;;0.50;;
19026;SDS011;9646;52.034;5.554;2022-08-05T10:28:15;3.20;;;0.65;;
19026;SDS011;9646;52.034;5.554;2022-08-05T10:30:42;0.40;;;0.40;;
19026;SDS011;9646;52.034;5.554;2022-08-05T10:33:10;1.20;;;0.50;;
19026;SDS011;9646;52.034;5.554;2022-08-05T10:35:38;2.35;;;0.60;;
19026;SDS011;9646;52.034;5.554;2022-08-05T10:38:05;3.78;;;0.60;;
19026;SDS011;9646;52.034;5.554;2022-08-05T10:40:34;1.08;;;0.40;;
19026;SDS011;9646;52.034;5.554;2022-08-05T10:43:06;2.42;;;0.70;;
19026;SDS011;9646;52.034;5.554;2022-08-05T10:45:34;1.48;;;0.70;;
19026;SDS011;9646;52.034;5.554;2022-08-05T10:50:57;1.95;;;0.50;;
19026;SDS011;9646;52.034;5.554;2022-08-05T10:53:38;2.05;;;0.57;;
19026;SDS011;9646;52.034;5.554;2022-08-05T10:56:06;2.85;;;0.40;;
19026;SDS011;9646;52.034;5.554;2022-08-05T10:58:34;0.55;;;0.30;;
19026;SDS011;9646;52.034;5.554;2022-08-05T11:01:04;1.38;;;0.40;;
19026;SDS011;9646;52.034;5.554;2022-08-05T11:03:32;0.68;;;0.47;;
19026;SDS011;9646;52.034;5.554;2022-08-05T11:06:05;2.55;;;0.60;;
19026;SDS011;9646;52.034;5.554;2022-08-05T11:08:32;1.83;;;0.38;;
19026;SDS011;9646;52.034;5.554;2022-08-05T11:13:45;1.27;;;0.63;;
19026;SDS011;9646;52.034;5.554;2022-08-05T11:16:22;2.50;;;0.30;;
19026;SDS011;9646;52.034;5.554;2022-08-05T11:21:32;1.95;;;0.60;;
19026;SDS011;9646;52.034;5.554;2022-08-05T11:24:05;1.30;;;0.43;;
19026;SDS011;9646;52.034;5.554;2022-08-05T11:26:33;1.40;;;0.55;;
19026;SDS011;9646;52.034;5.554;2022-08-05T11:29:01;2.30;;;0.45;;
19026;SDS011;9646;52.034;5.554;2022-08-05T11:31:29;3.33;;;0.77;;
19026;SDS011;9646;52.034;5.554;2022-08-05T11:34:00;1.95;;;0.52;;
19026;SDS011;9646;52.034;5.554;2022-08-05T11:42:17;2.38;;;0.45;;
19026;SDS011;9646;52.034;5.554;2022-08-05T11:44:48;0.57;;;0.45;;
19026;SDS011;9646;52.034;5.554;2022-08-05T11:47:19;1.40;;;0.40;;
19026;SDS011;9646;52.034;5.554;2022-08-05T11:49:46;2.38;;;0.60;;
19026;SDS011;9646;52.034;5.554;2022-08-05T11:52:13;1.58;;;0.30;;
19026;SDS011;9646;52.034;5.554;2022-08-05T11:54:49;1.30;;;0.50;;
19026;SDS011;9646;52.034;5.554;2022-08-05T11:57:18;1.77;;;0.30;;
19026;SDS011;9646;52.034;5.554;2022-08-05T11:59:45;2.08;;;0.50;;
19026;SDS011;9646;52.034;5.554;2022-08-05T12:02:12;1.63;;;0.30;;
19026;SDS011;9646;52.034;5.554;2022-08-05T12:04:40;1.33;;;0.52;;
19026;SDS011;9646;52.034;5.554;2022-08-05T12:07:08;3.05;;;0.75;;
19026;SDS011;9646;52.034;5.554;2022-08-05T12:09:35;0.63;;;0.38;;
19026;SDS011;9646;52.034;5.554;2022-08-05T12:12:03;2.60;;;0.50;;
19026;SDS011;9646;52.034;5.554;2022-08-05T12:14:38;3.90;;;0.43;;
19026;SDS011;9646;52.034;5.554;2022-08-05T12:17:06;1.42;;;0.50;;
19026;SDS011;9646;52.034;5.554;2022-08-05T12:19:39;3.33;;;0.60;;
19026;SDS011;9646;52.034;5.554;2022-08-05T12:22:06;1.08;;;0.50;;
19026;SDS011;9646;52.034;5.554;2022-08-05T12:24:33;1.40;;;0.40;;
19026;SDS011;9646;52.034;5.554;2022-08-05T12:27:05;1.23;;;0.50;;
19026;SDS011;9646;52.034;5.554;2022-08-05T12:29:32;1.95;;;0.60;;
19026;SDS011;9646;52.034;5.554;2022-08-05T12:32:01;2.13;;;0.55;;
19026;SDS011;9646;52.034;5.554;2022-08-05T12:34:29;2.13;;;0.50;;
19026;SDS011;9646;52.034;5.554;2022-08-05T12:36:57;2.50;;;0.50;;
19026;SDS011;9646;52.034;5.554;2022-08-05T12:39:24;1.35;;;0.60;;
19026;SDS011;9646;52.034;5.554;2022-08-05T12:41:55;1.95;;;0.50;;
19026;SDS011;9646;52.034;5.554;2022-08-05T12:44:23;2.45;;;0.60;;
19026;SDS011;9646;52.034;5.554;2022-08-05T12:46:50;3.40;;;0.70;;
19026;SDS011;9646;52.034;5.554;2022-08-05T12:49:19;1.55;;;0.57;;
19026;SDS011;9646;52.034;5.554;2022-08-05T12:51:47;2.42;;;0.50;;
19026;SDS011;9646;52.034;5.554;2022-08-05T12:54:17;1.77;;;0.70;;
19026;SDS011;9646;52.034;5.554;2022-08-05T12:56:48;1.25;;;0.40;;
19026;SDS011;9646;52.034;5.554;2022-08-05T12:59:17;2.05;;;0.50;;
19026;SDS011;9646;52.034;5.554;2022-08-05T13:01:46;2.55;;;0.40;;
19026;SDS011;9646;52.034;5.554;2022-08-05T13:04:20;2.75;;;0.45;;
19026;SDS011;9646;52.034;5.554;2022-08-05T13:06:48;1.42;;;0.60;;
19026;SDS011;9646;52.034;5.554;2022-08-05T13:09:15;3.67;;;0.68;;
19026;SDS011;9646;52.034;5.554;2022-08-05T13:11:42;1.33;;;0.60;;
19026;SDS011;9646;52.034;5.554;2022-08-05T13:14:20;3.63;;;0.50;;
19026;SDS011;9646;52.034;5.554;2022-08-05T13:16:48;1.20;;;0.55;;
19026;SDS011;9646;52.034;5.554;2022-08-05T13:19:16;3.35;;;0.65;;
19026;SDS011;9646;52.034;5.554;2022-08-05T13:21:47;3.28;;;0.50;;
19026;SDS011;9646;52.034;5.554;2022-08-05T13:24:14;2.88;;;0.70;;
19026;SDS011;9646;52.034;5.554;2022-08-05T13:26:42;3.50;;;0.60;;
19026;SDS011;9646;52.034;5.554;2022-08-05T13:29:09;3.75;;;0.80;;
19026;SDS011;9646;52.034;5.554;2022-08-05T13:31:36;1.35;;;0.52;;
19026;SDS011;9646;52.034;5.554;2022-08-05T13:34:04;3.13;;;0.60;;
19026;SDS011;9646;52.034;5.554;2022-08-05T13:36:31;3.28;;;0.88;;
19026;SDS011;9646;52.034;5.554;2022-08-05T13:39:00;1.85;;;0.57;;
19026;SDS011;9646;52.034;5.554;2022-08-05T13:41:27;4.18;;;0.80;;
19026;SDS011;9646;52.034;5.554;2022-08-05T13:43:54;2.67;;;0.82;;
19026;SDS011;9646;52.034;5.554;2022-08-05T13:46:21;2.05;;;0.55;;
19026;SDS011;9646;52.034;5.554;2022-08-05T13:48:49;1.52;;;0.60;;
19026;SDS011;9646;52.034;5.554;2022-08-05T13:51:23;1.05;;;0.40;;
19026;SDS011;9646;52.034;5.554;2022-08-05T13:53:51;1.63;;;0.60;;
19026;SDS011;9646;52.034;5.554;2022-08-05T13:56:19;3.03;;;0.50;;
19026;SDS011;9646;52.034;5.554;2022-08-05T13:58:46;2.80;;;0.70;;
19026;SDS011;9646;52.034;5.554;2022-08-05T14:01:13;3.72;;;0.82;;
19026;SDS011;9646;52.034;5.554;2022-08-05T14:03:40;3.00;;;0.70;;
19026;SDS011;9646;52.034;5.554;2022-08-05T14:06:07;1.75;;;0.70;;
19026;SDS011;9646;52.034;5.554;2022-08-05T14:08:33;1.20;;;0.55;;
19026;SDS011;9646;52.034;5.554;2022-08-05T14:11:00;2.67;;;0.75;;
19026;SDS011;9646;52.034;5.554;2022-08-05T14:13:29;1.23;;;0.60;;
19026;SDS011;9646;52.034;5.554;2022-08-05T14:15:56;1.02;;;0.50;;
19026;SDS011;9646;52.034;5.554;2022-08-05T14:18:23;1.10;;;0.50;;
19026;SDS011;9646;52.034;5.554;2022-08-05T14:20:50;1.40;;;0.60;;
19026;SDS011;9646;52.034;5.554;2022-08-05T14:23:17;1.48;;;0.55;;
19026;SDS011;9646;52.034;5.554;2022-08-05T14:25:44;2.55;;;0.73;;
19026;SDS011;9646;52.034;5.554;2022-08-05T14:28:11;3.58;;;0.90;;
19026;SDS011;9646;52.034;5.554;2022-08-05T14:30:40;3.00;;;0.70;;
19026;SDS011;9646;52.034;5.554;2022-08-05T14:33:07;3.72;;;0.70;;
19026;SDS011;9646;52.034;5.554;2022-08-05T14:35:34;3.10;;;0.98;;
19026;SDS011;9646;52.034;5.554;2022-08-05T14:38:01;1.77;;;0.68;;
19026;SDS011;9646;52.034;5.554;2022-08-05T14:40:28;3.13;;;1.00;;
19026;SDS011;9646;52.034;5.554;2022-08-05T14:42:55;2.15;;;0.63;;
19026;SDS011;9646;52.034;5.554;2022-08-05T14:45:22;2.72;;;0.52;;
19026;SDS011;9646;52.034;5.554;2022-08-05T14:47:51;3.20;;;0.52;;
19026;SDS011;9646;52.034;5.554;2022-08-05T14:50:18;3.13;;;0.70;;
19026;SDS011;9646;52.034;5.554;2022-08-05T14:52:45;1.15;;;0.60;;
19026;SDS011;9646;52.034;5.554;2022-08-05T14:55:13;1.17;;;0.52;;
19026;SDS011;9646;52.034;5.554;2022-08-05T14:57:40;1.45;;;0.50;;
19026;SDS011;9646;52.034;5.554;2022-08-05T15:00:07;3.80;;;1.10;;
19026;SDS011;9646;52.034;5.554;2022-08-05T15:02:34;2.85;;;0.60;;
19026;SDS011;9646;52.034;5.554;2022-08-05T15:05:03;4.15;;;0.80;;
19026;SDS011;9646;52.034;5.554;2022-08-05T15:07:30;1.20;;;0.50;;
19026;SDS011;9646;52.034;5.554;2022-08-05T15:09:57;1.05;;;0.50;;
19026;SDS011;9646;52.034;5.554;2022-08-05T15:12:24;1.80;;;0.50;;
19026;SDS011;9646;52.034;5.554;2022-08-05T15:14:51;3.22;;;0.60;;
19026;SDS011;9646;52.034;5.554;2022-08-05T15:17:19;1.73;;;0.65;;
19026;SDS011;9646;52.034;5.554;2022-08-05T15:19:46;3.45;;;0.60;;